Meroa, Iowa
Current Conditions -  °F | °C
As of 1:55 PM on Saturday 25 Oct 2014 (Local Time) from KCCY Reporting Station
Clear Clear  
Wind Chill: 66°   Ceiling: Unl
Heat Index: 66°   Visibility: 10mi
Dew Point: 30°   Wind: 14mph
Humidity: 26%   Direction: 310°NW
Pressure: 30.07"   Gusts: NA
Location:  43.2938°N, 92.8135°W
Report Text: KCCY 251855Z AUTO 31012KT 10SM CLR 19/M01 A3007 RMK AO2
Loading
Personal Weather Stations






























Interactive Weather Map
Tropical Storm Tracking
New forecast layout! Learn more

10-Day Weather Forecast

Advertisements
Track Severe Weather on mobile